createdAt,value
2022-09-15T00:00:46.072Z,999.40
2022-09-15T00:01:46.116Z,999.40
2022-09-15T00:02:46.162Z,999.44
2022-09-15T00:03:46.032Z,999.42
2022-09-15T00:04:46.003Z,999.42
2022-09-15T00:05:46.003Z,999.39
2022-09-15T00:06:45.990Z,999.39
2022-09-15T00:07:46.004Z,999.38
2022-09-15T00:08:45.967Z,999.42
2022-09-15T00:09:45.963Z,999.37
2022-09-15T00:10:45.992Z,999.40
2022-09-15T00:11:45.932Z,999.38
2022-09-15T00:12:45.922Z,999.32
2022-09-15T00:13:45.933Z,999.37
2022-09-15T00:14:45.902Z,999.37
2022-09-15T00:15:45.902Z,999.35
2022-09-15T00:16:45.926Z,999.33
2022-09-15T00:17:45.882Z,999.47
2022-09-15T00:18:45.853Z,999.40
2022-09-15T00:19:45.852Z,999.40
2022-09-15T00:20:45.862Z,999.40
2022-09-15T00:21:45.836Z,999.45
2022-09-15T00:22:45.856Z,999.46
2022-09-15T00:23:45.810Z,999.38
2022-09-15T00:24:45.802Z,999.44
2022-09-15T00:25:45.828Z,999.43
2022-09-15T00:26:45.773Z,999.42
2022-09-15T00:27:45.793Z,999.42
2022-09-15T00:28:45.785Z,999.45
2022-09-15T00:29:45.753Z,999.46
2022-09-15T00:30:45.771Z,999.43
2022-09-15T00:31:45.745Z,999.41
2022-09-15T00:32:45.712Z,999.41
2022-09-15T00:33:45.741Z,999.41
2022-09-15T00:34:45.693Z,999.38
2022-09-15T00:35:45.684Z,999.36
2022-09-15T00:36:45.672Z,999.38
2022-09-15T00:37:45.663Z,999.36
2022-09-15T00:38:45.683Z,999.35
2022-09-15T00:39:45.677Z,999.39
2022-09-15T00:40:45.623Z,999.38
2022-09-15T00:41:45.641Z,999.36
2022-09-15T00:42:45.605Z,999.40
2022-09-15T00:43:45.593Z,999.39
2022-09-15T00:44:45.634Z,999.37
2022-09-15T00:45:45.642Z,999.37
2022-09-15T00:46:54.796Z,999.33
2022-09-15T00:47:46.555Z,999.36
2022-09-15T00:48:45.585Z,999.37
2022-09-15T00:49:45.540Z,999.34
2022-09-15T00:50:45.522Z,999.34
2022-09-15T00:51:45.540Z,999.32
2022-09-15T00:52:45.499Z,999.27
2022-09-15T00:53:45.485Z,999.29
2022-09-15T00:54:45.475Z,999.27
2022-09-15T00:55:45.472Z,999.22
2022-09-15T00:56:45.453Z,999.24
2022-09-15T00:57:45.492Z,999.28
2022-09-15T00:58:45.433Z,999.25
2022-09-15T00:59:45.433Z,999.25
2022-09-15T01:00:45.462Z,999.21
2022-09-15T01:01:45.484Z,999.23
2022-09-15T01:02:45.431Z,999.21
2022-09-15T01:03:45.412Z,999.22
2022-09-15T01:04:45.362Z,999.21
2022-09-15T01:05:45.362Z,999.21
2022-09-15T01:06:45.382Z,999.22
2022-09-15T01:07:45.334Z,999.26
2022-09-15T01:08:45.323Z,999.26
2022-09-15T01:09:45.319Z,999.27
2022-09-15T01:10:45.303Z,999.22
2022-09-15T01:11:45.300Z,999.20
2022-09-15T01:12:45.331Z,999.22
2022-09-15T01:13:45.272Z,999.27
2022-09-15T01:14:45.252Z,999.27
2022-09-15T01:15:45.253Z,999.27
2022-09-15T01:16:45.296Z,999.28
2022-09-15T01:17:45.233Z,999.27
2022-09-15T01:18:45.254Z,999.24
2022-09-15T01:19:45.212Z,999.27
2022-09-15T01:20:45.192Z,999.21
2022-09-15T01:21:45.184Z,999.25
2022-09-15T01:22:45.170Z,999.23
2022-09-15T01:23:45.205Z,999.25
2022-09-15T01:24:45.181Z,999.24
2022-09-15T01:25:45.164Z,999.23
2022-09-15T01:26:45.121Z,999.25
2022-09-15T01:27:45.112Z,999.20
2022-09-15T01:28:45.140Z,999.20
2022-09-15T01:29:45.099Z,999.21
2022-09-15T01:30:45.081Z,999.19
2022-09-15T01:31:45.083Z,999.20
2022-09-15T01:32:45.062Z,999.20
2022-09-15T01:33:45.052Z,999.20
2022-09-15T01:34:45.064Z,999.16
2022-09-15T01:35:45.032Z,999.20
2022-09-15T01:36:45.031Z,999.15
2022-09-15T01:37:45.010Z,999.20
2022-09-15T01:38:45.013Z,999.24
2022-09-15T01:39:45.031Z,999.21
2022-09-15T01:40:45.003Z,999.22
2022-09-15T01:41:44.961Z,999.22
2022-09-15T01:42:44.953Z,999.23
2022-09-15T01:43:44.944Z,999.28
2022-09-15T01:44:44.939Z,999.28
2022-09-15T01:45:44.998Z,999.30
2022-09-15T01:46:44.932Z,999.27
2022-09-15T01:47:44.896Z,999.32
2022-09-15T01:48:44.893Z,999.30
2022-09-15T01:49:44.882Z,999.30
2022-09-15T01:50:44.893Z,999.26
2022-09-15T01:51:44.859Z,999.31
2022-09-15T01:52:44.858Z,999.31
2022-09-15T01:53:44.930Z,999.31
2022-09-15T01:54:44.822Z,999.28
2022-09-15T01:55:44.813Z,999.31
2022-09-15T01:56:44.803Z,999.28
2022-09-15T01:57:44.808Z,999.31
2022-09-15T01:58:44.782Z,999.31
2022-09-15T01:59:44.852Z,999.29
2022-09-15T02:00:44.811Z,999.31
2022-09-15T02:01:44.822Z,999.28
2022-09-15T02:02:44.755Z,999.29
2022-09-15T02:03:44.738Z,999.27
2022-09-15T02:04:44.712Z,999.28
2022-09-15T02:05:44.751Z,999.29
2022-09-15T02:06:44.692Z,999.30
2022-09-15T02:07:44.682Z,999.30
2022-09-15T02:08:44.694Z,999.31
2022-09-15T02:09:44.661Z,999.32
2022-09-15T02:10:44.652Z,999.35
2022-09-15T02:11:44.732Z,999.37
2022-09-15T02:12:44.645Z,999.39
2022-09-15T02:13:44.621Z,999.37
2022-09-15T02:14:44.610Z,999.37
2022-09-15T02:15:44.591Z,999.34
2022-09-15T02:16:44.626Z,999.30
2022-09-15T02:17:44.603Z,999.34
2022-09-15T02:18:44.562Z,999.29
2022-09-15T02:19:45.499Z,999.31
2022-09-15T02:20:44.542Z,999.35
2022-09-15T02:21:44.532Z,999.34
2022-09-15T02:22:44.564Z,999.39
2022-09-15T02:23:44.574Z,999.31
2022-09-15T02:24:44.564Z,999.33
2022-09-15T02:25:44.482Z,999.32
2022-09-15T02:26:44.480Z,999.27
2022-09-15T02:27:44.462Z,999.33
2022-09-15T02:28:44.461Z,999.27
2022-09-15T02:29:44.442Z,999.28
2022-09-15T02:30:44.462Z,999.26
2022-09-15T02:31:44.529Z,999.26
2022-09-15T02:32:44.421Z,999.25
2022-09-15T02:33:44.400Z,999.26
2022-09-15T02:34:44.392Z,999.25
2022-09-15T02:35:44.403Z,999.25
2022-09-15T02:36:44.373Z,999.25
2022-09-15T02:37:44.361Z,999.24
2022-09-15T02:38:44.420Z,999.30
2022-09-15T02:39:44.423Z,999.30
2022-09-15T02:40:44.356Z,999.31
2022-09-15T02:41:44.321Z,999.29
2022-09-15T02:42:44.339Z,999.30
2022-09-15T02:43:44.292Z,999.35
2022-09-15T02:44:44.292Z,999.34
2022-09-15T02:45:44.329Z,999.36
2022-09-15T02:46:44.261Z,999.41
2022-09-15T02:47:44.252Z,999.38
2022-09-15T02:48:44.281Z,999.39
2022-09-15T02:49:44.231Z,999.42
2022-09-15T02:50:45.290Z,999.41
2022-09-15T02:51:44.213Z,999.42
2022-09-15T02:52:44.201Z,999.43
2022-09-15T02:53:44.307Z,999.38
2022-09-15T02:54:44.180Z,999.42
2022-09-15T02:55:44.161Z,999.42
2022-09-15T02:56:44.162Z,999.39
2022-09-15T02:57:44.141Z,999.42
2022-09-15T02:58:44.135Z,999.39
2022-09-15T02:59:44.152Z,999.43
2022-09-15T03:00:44.174Z,999.46
2022-09-15T03:01:44.165Z,999.42
2022-09-15T03:02:44.094Z,999.41
2022-09-15T03:03:44.073Z,999.46
2022-09-15T03:04:44.071Z,999.40
2022-09-15T03:05:44.081Z,999.45
2022-09-15T03:06:44.060Z,999.41
2022-09-15T03:07:44.043Z,999.42
2022-09-15T03:08:44.031Z,999.37
2022-09-15T03:09:44.041Z,999.44
2022-09-15T03:10:44.043Z,999.42
2022-09-15T03:11:44.042Z,999.45
2022-09-15T03:12:44.001Z,999.49
2022-09-15T03:13:43.971Z,999.45
2022-09-15T03:14:43.962Z,999.41
2022-09-15T03:15:43.952Z,999.44
2022-09-15T03:16:43.957Z,999.42
2022-09-15T03:17:43.961Z,999.46
2022-09-15T03:18:43.922Z,999.47
2022-09-15T03:19:43.908Z,999.43
2022-09-15T03:20:43.901Z,999.45
2022-09-15T03:21:43.890Z,999.45
2022-09-15T03:22:43.881Z,999.46
2022-09-15T03:23:44.001Z,999.43
2022-09-15T03:24:43.851Z,999.45
2022-09-15T03:25:43.844Z,999.46
2022-09-15T03:26:43.831Z,999.43
2022-09-15T03:27:43.823Z,999.45
2022-09-15T03:28:43.811Z,999.40
2022-09-15T03:29:43.850Z,999.39
2022-09-15T03:30:43.824Z,999.41
2022-09-15T03:31:43.892Z,999.35
2022-09-15T03:32:43.785Z,999.36
2022-09-15T03:33:43.759Z,999.36
2022-09-15T03:34:43.747Z,999.32
2022-09-15T03:35:43.762Z,999.36
2022-09-15T03:36:43.731Z,999.34
2022-09-15T03:37:43.744Z,999.39
2022-09-15T03:38:43.706Z,999.38
2022-09-15T03:39:43.701Z,999.39
2022-09-15T03:40:43.681Z,999.40
2022-09-15T03:41:43.671Z,999.37
2022-09-15T03:42:43.692Z,999.41
2022-09-15T03:43:43.651Z,999.40
2022-09-15T03:44:43.662Z,999.42
2022-09-15T03:45:43.650Z,999.37
2022-09-15T03:46:43.641Z,999.39
2022-09-15T03:47:43.630Z,999.36
2022-09-15T03:48:43.600Z,999.39
2022-09-15T03:49:43.580Z,999.40
2022-09-15T03:50:43.579Z,999.43
2022-09-15T03:51:43.570Z,999.41
2022-09-15T03:52:43.580Z,999.41
2022-09-15T03:53:43.570Z,999.44
2022-09-15T03:54:43.569Z,999.42
2022-09-15T03:55:43.520Z,999.42
2022-09-15T03:56:43.510Z,999.42
2022-09-15T03:57:43.490Z,999.43
2022-09-15T03:58:43.495Z,999.42
2022-09-15T03:59:43.472Z,999.37
2022-09-15T04:00:43.618Z,999.43
2022-09-15T04:01:43.541Z,999.38
2022-09-15T04:02:43.449Z,999.43
2022-09-15T04:03:47.566Z,999.42
2022-09-15T04:04:44.460Z,999.41
2022-09-15T04:05:43.410Z,999.36
2022-09-15T04:06:43.406Z,999.38
2022-09-15T04:07:43.390Z,999.39
2022-09-15T04:08:43.421Z,999.38
2022-09-15T04:09:43.383Z,999.35
2022-09-15T04:10:43.391Z,999.37
2022-09-15T04:11:43.349Z,999.37
2022-09-15T04:12:43.340Z,999.37
2022-09-15T04:13:43.336Z,999.35
2022-09-15T04:14:43.350Z,999.36
2022-09-15T04:15:43.309Z,999.37
2022-09-15T04:16:43.376Z,999.37
2022-09-15T04:17:43.281Z,999.36
2022-09-15T04:18:43.304Z,999.38
2022-09-15T04:19:43.351Z,999.39
2022-09-15T04:21:52.774Z,999.38
2022-09-15T04:22:52.734Z,999.38
2022-09-15T04:23:52.801Z,999.39
2022-09-15T04:24:52.714Z,999.37
2022-09-15T04:25:52.705Z,999.37
2022-09-15T04:26:52.785Z,999.39
2022-09-15T04:27:52.734Z,999.39
2022-09-15T04:28:52.718Z,999.37
2022-09-15T04:29:52.655Z,999.36
2022-09-15T04:30:52.651Z,999.40
2022-09-15T04:31:52.695Z,999.36
2022-09-15T04:32:52.636Z,999.43
2022-09-15T04:33:52.649Z,999.41
2022-09-15T04:34:52.607Z,999.39
2022-09-15T04:35:52.595Z,999.41
2022-09-15T04:36:52.628Z,999.42
2022-09-15T04:37:52.603Z,999.45
2022-09-15T04:38:52.759Z,999.45
2022-09-15T04:39:52.651Z,999.47
2022-09-15T04:40:52.542Z,999.50
2022-09-15T04:41:52.525Z,999.50
2022-09-15T04:42:52.656Z,999.52
2022-09-15T04:43:52.640Z,999.53
2022-09-15T04:44:52.519Z,999.52
2022-09-15T04:45:52.484Z,999.53
2022-09-15T04:46:52.617Z,999.53
2022-09-15T04:47:52.465Z,999.58
2022-09-15T04:48:52.465Z,999.52
2022-09-15T04:49:52.445Z,999.58
2022-09-15T04:50:52.435Z,999.57
2022-09-15T04:51:52.424Z,999.53
2022-09-15T04:52:52.445Z,999.53
2022-09-15T04:53:52.526Z,999.54
2022-09-15T04:54:52.423Z,999.51
2022-09-15T04:55:52.385Z,999.53
2022-09-15T04:56:52.373Z,999.52
2022-09-15T04:57:52.364Z,999.53
2022-09-15T04:58:52.404Z,999.55
2022-09-15T04:59:52.372Z,999.49
2022-09-15T05:00:52.402Z,999.57
2022-09-15T05:01:52.363Z,999.58
2022-09-15T05:02:52.302Z,999.55
2022-09-15T05:03:52.293Z,999.57
2022-09-15T05:04:52.332Z,999.56
2022-09-15T05:05:52.275Z,999.56
2022-09-15T05:06:52.259Z,999.59
2022-09-15T05:07:52.250Z,999.61
2022-09-15T05:08:52.336Z,999.58
2022-09-15T05:09:52.231Z,999.60
2022-09-15T05:10:52.247Z,999.57
2022-09-15T05:11:52.204Z,999.61
2022-09-15T05:12:52.195Z,999.62
2022-09-15T05:13:52.188Z,999.58
2022-09-15T05:14:52.205Z,999.60
2022-09-15T05:15:52.214Z,999.64
2022-09-15T05:16:52.154Z,999.61
2022-09-15T05:17:52.134Z,999.63
2022-09-15T05:18:52.135Z,999.61
2022-09-15T05:19:52.142Z,999.61
2022-09-15T05:20:52.114Z,999.65
2022-09-15T05:21:52.124Z,999.61
2022-09-15T05:22:52.094Z,999.63
2022-09-15T05:23:52.333Z,999.65
2022-09-15T05:24:52.074Z,999.66
2022-09-15T05:25:52.054Z,999.62
2022-09-15T05:26:52.068Z,999.67
2022-09-15T05:27:52.034Z,999.67
2022-09-15T05:28:52.023Z,999.69
2022-09-15T05:30:04.446Z,999.63
2022-09-15T05:30:53.036Z,999.70
2022-09-15T05:31:52.013Z,999.64
2022-09-15T05:32:52.033Z,999.66
2022-09-15T05:33:51.984Z,999.65
2022-09-15T05:34:51.954Z,999.64
2022-09-15T05:35:51.944Z,999.61
2022-09-15T05:36:52.023Z,999.65
2022-09-15T05:37:51.916Z,999.68
2022-09-15T05:38:52.097Z,999.68
2022-09-15T05:39:51.923Z,999.70
2022-09-15T05:40:51.895Z,999.67
2022-09-15T05:41:51.903Z,999.70
2022-09-15T05:42:51.905Z,999.71
2022-09-15T05:43:51.894Z,999.74
2022-09-15T05:44:51.844Z,999.76
2022-09-15T05:45:51.834Z,999.75
2022-09-15T05:46:51.867Z,999.78
2022-09-15T05:47:51.805Z,999.77
2022-09-15T05:48:51.831Z,999.77
2022-09-15T05:49:51.824Z,999.75
2022-09-15T05:50:51.774Z,999.73
2022-09-15T05:51:51.774Z,999.77
2022-09-15T05:52:51.762Z,999.76
2022-09-15T05:53:51.905Z,999.80
2022-09-15T05:54:54.706Z,999.76
2022-09-15T05:55:52.714Z,999.83
2022-09-15T05:56:51.716Z,999.84
2022-09-15T05:57:51.726Z,999.80
2022-09-15T05:58:51.704Z,999.82
2022-09-15T05:59:51.674Z,999.77
2022-09-15T06:00:51.672Z,999.79
2022-09-15T06:01:51.720Z,999.78
2022-09-15T06:02:51.738Z,999.80
2022-09-15T06:03:51.662Z,999.82
2022-09-15T06:04:51.630Z,999.87
2022-09-15T06:05:51.613Z,999.84
2022-09-15T06:06:51.603Z,999.86
2022-09-15T06:07:51.594Z,999.86
2022-09-15T06:08:55.665Z,999.85
2022-09-15T06:09:52.614Z,999.86
2022-09-15T06:10:51.553Z,999.90
2022-09-15T06:11:51.574Z,999.85
2022-09-15T06:12:51.534Z,999.88
2022-09-15T06:13:51.539Z,999.94
2022-09-15T06:14:51.561Z,999.95
2022-09-15T06:15:51.586Z,999.94
2022-09-15T06:16:51.602Z,999.99
2022-09-15T06:17:51.483Z,1000.00
2022-09-15T06:18:51.688Z,1000.05
2022-09-15T06:19:51.463Z,1000.07
2022-09-15T06:20:51.453Z,1000.10
2022-09-15T06:21:51.434Z,1000.04
2022-09-15T06:22:51.453Z,1000.05
2022-09-15T06:23:51.416Z,1000.08
2022-09-15T06:24:51.413Z,1000.09
2022-09-15T06:25:51.394Z,1000.09
2022-09-15T06:26:53.164Z,1000.09
2022-09-15T06:27:51.395Z,1000.05
2022-09-15T06:28:51.364Z,1000.12
2022-09-15T06:29:51.354Z,1000.05
2022-09-15T06:30:51.345Z,1000.11
2022-09-15T06:31:51.416Z,1000.07
2022-09-15T06:32:51.338Z,1000.09
2022-09-15T06:33:51.592Z,1000.10
2022-09-15T06:34:51.313Z,1000.08
2022-09-15T06:35:51.293Z,1000.10
2022-09-15T06:36:51.274Z,1000.11
2022-09-15T06:37:51.263Z,1000.10
2022-09-15T06:38:51.264Z,1000.12
2022-09-15T06:39:51.443Z,1000.15
2022-09-15T06:40:51.234Z,1000.18
2022-09-15T06:42:02.296Z,1000.18
2022-09-15T06:42:52.222Z,1000.17
2022-09-15T06:43:57.023Z,1000.20
2022-09-15T06:44:51.193Z,1000.18
2022-09-15T06:45:51.292Z,1000.21
2022-09-15T06:46:51.164Z,1000.16
2022-09-15T06:48:07.407Z,1000.17
2022-09-15T06:48:52.156Z,1000.18
2022-09-15T06:49:51.153Z,1000.23
2022-09-15T06:50:51.123Z,1000.23
2022-09-15T06:51:51.103Z,1000.27
2022-09-15T06:52:51.103Z,1000.32
2022-09-15T06:53:51.126Z,1000.29
2022-09-15T06:54:51.085Z,1000.32
2022-09-15T06:55:51.075Z,1000.31
2022-09-15T06:56:51.094Z,1000.31
2022-09-15T06:57:51.130Z,1000.33
2022-09-15T06:58:51.135Z,1000.30
2022-09-15T06:59:51.058Z,1000.34
2022-09-15T07:00:51.033Z,1000.34
2022-09-15T07:01:51.073Z,1000.33
2022-09-15T07:02:51.064Z,1000.34
2022-09-15T07:03:50.976Z,1000.39
2022-09-15T07:04:50.974Z,1000.38
2022-09-15T07:05:50.954Z,1000.35
2022-09-15T07:06:50.983Z,1000.34
2022-09-15T07:07:50.936Z,1000.38
2022-09-15T07:08:51.085Z,1000.41
2022-09-15T07:09:50.916Z,1000.41
2022-09-15T07:10:50.913Z,1000.45
2022-09-15T07:11:50.891Z,1000.45
2022-09-15T07:12:50.933Z,1000.43
2022-09-15T07:13:50.874Z,1000.45
2022-09-15T07:14:50.901Z,1000.53
2022-09-15T07:15:50.965Z,1000.46
2022-09-15T07:16:50.920Z,1000.50
2022-09-15T07:17:50.823Z,1000.54
2022-09-15T07:18:50.995Z,1000.55
2022-09-15T07:19:50.811Z,1000.54
2022-09-15T07:20:50.794Z,1000.51
2022-09-15T07:21:51.033Z,1000.51
2022-09-15T07:22:50.772Z,1000.55
2022-09-15T07:23:50.764Z,1000.49
2022-09-15T07:24:50.766Z,1000.48
2022-09-15T07:25:50.743Z,1000.43
2022-09-15T07:26:51.023Z,1000.44
2022-09-15T07:27:50.723Z,1000.46
2022-09-15T07:28:50.704Z,1000.46
2022-09-15T07:29:50.703Z,1000.48
2022-09-15T07:30:50.696Z,1000.52
2022-09-15T07:31:51.135Z,1000.56
2022-09-15T07:32:50.663Z,1000.56
2022-09-15T07:33:50.701Z,1000.54
2022-09-15T07:34:50.653Z,1000.54
2022-09-15T07:35:50.668Z,1000.56
2022-09-15T07:36:50.623Z,1000.56
2022-09-15T07:37:50.602Z,1000.50
2022-09-15T07:38:50.600Z,1000.52
2022-09-15T07:39:50.646Z,1000.55
2022-09-15T07:40:50.573Z,1000.55
2022-09-15T07:41:50.582Z,1000.56
2022-09-15T07:42:50.564Z,1000.55
2022-09-15T07:43:50.546Z,1000.51
2022-09-15T07:44:50.582Z,1000.54
2022-09-15T07:45:50.584Z,1000.46
2022-09-15T07:46:50.543Z,1000.47
2022-09-15T07:47:50.493Z,1000.46
2022-09-15T07:48:50.493Z,1000.47
2022-09-15T07:49:50.484Z,1000.44
2022-09-15T07:50:50.509Z,1000.49
2022-09-15T07:51:50.532Z,1000.46
2022-09-15T07:52:50.442Z,1000.52
2022-09-15T07:53:50.440Z,1000.54
2022-09-15T07:54:50.452Z,1000.55
2022-09-15T07:55:50.416Z,1000.60
2022-09-15T07:56:50.402Z,1000.60
2022-09-15T07:57:50.391Z,1000.63
2022-09-15T07:58:50.390Z,1000.69
2022-09-15T07:59:50.413Z,1000.68
2022-09-15T08:00:50.392Z,1000.69
2022-09-15T08:01:50.394Z,1000.70
2022-09-15T08:02:50.341Z,1000.70
2022-09-15T08:03:50.330Z,1000.73
2022-09-15T08:04:50.354Z,1000.71
2022-09-15T08:05:50.334Z,1000.66
2022-09-15T08:06:50.344Z,1000.68
2022-09-15T08:07:50.295Z,1000.73
2022-09-15T08:08:50.286Z,1000.69
2022-09-15T08:09:50.271Z,1000.72
2022-09-15T08:10:50.271Z,1000.71
2022-09-15T08:11:50.289Z,1000.72
2022-09-15T08:12:50.233Z,1000.77
2022-09-15T08:13:50.273Z,1000.77
2022-09-15T08:14:50.221Z,1000.74
2022-09-15T08:15:50.242Z,1000.73
2022-09-15T08:16:50.233Z,1000.79
2022-09-15T08:17:50.250Z,1000.80
2022-09-15T08:18:50.173Z,1000.79
2022-09-15T08:19:50.153Z,1000.79
2022-09-15T08:20:50.142Z,1000.83
2022-09-15T08:21:50.134Z,1000.81
2022-09-15T08:22:50.153Z,1000.83
2022-09-15T08:23:50.114Z,1000.87
2022-09-15T08:24:50.093Z,1000.85
2022-09-15T08:25:50.092Z,1000.89
2022-09-15T08:26:50.082Z,1000.92
2022-09-15T08:27:50.093Z,1000.92
2022-09-15T08:28:51.890Z,1000.89
2022-09-15T08:29:50.090Z,1000.92
2022-09-15T08:30:50.061Z,1000.94
2022-09-15T08:31:50.143Z,1000.94
2022-09-15T08:32:50.023Z,1000.98
2022-09-15T08:33:50.011Z,1001.04
2022-09-15T08:34:50.004Z,1001.03
2022-09-15T08:35:49.992Z,1001.04
2022-09-15T08:36:50.013Z,1001.05
2022-09-15T08:37:49.964Z,1001.06
2022-09-15T08:38:49.980Z,1001.04
2022-09-15T08:39:49.960Z,1001.08
2022-09-15T08:40:49.928Z,1001.12
2022-09-15T08:41:49.978Z,1001.09
2022-09-15T08:42:49.903Z,1001.09
2022-09-15T08:43:49.894Z,1001.08
2022-09-15T08:44:49.883Z,1001.11
2022-09-15T08:45:49.883Z,1001.11
2022-09-15T08:46:49.893Z,1001.13
2022-09-15T08:47:49.891Z,1001.09
2022-09-15T08:48:49.835Z,1001.09
2022-09-15T08:49:52.248Z,1001.12
2022-09-15T08:50:49.824Z,1001.15
2022-09-15T08:51:49.843Z,1001.16
2022-09-15T08:52:49.794Z,1001.17
2022-09-15T08:53:49.784Z,1001.20
2022-09-15T08:54:49.829Z,1001.20
2022-09-15T08:55:49.795Z,1001.21
2022-09-15T08:56:49.774Z,1001.24
2022-09-15T08:57:49.750Z,1001.27
2022-09-15T08:58:49.763Z,1001.30
2022-09-15T08:59:49.715Z,1001.24
2022-09-15T09:00:49.746Z,1001.27
2022-09-15T09:01:49.867Z,1001.28
2022-09-15T09:02:49.787Z,1001.27
2022-09-15T09:03:49.693Z,1001.30
2022-09-15T09:04:49.834Z,1001.26
2022-09-15T09:05:49.662Z,1001.25
2022-09-15T09:06:49.643Z,1001.27
2022-09-15T09:07:49.634Z,1001.26
2022-09-15T09:08:49.622Z,1001.26
2022-09-15T09:09:49.613Z,1001.26
2022-09-15T09:10:49.656Z,1001.28
2022-09-15T09:11:49.604Z,1001.25
2022-09-15T09:12:49.574Z,1001.27
2022-09-15T09:13:49.573Z,1001.27
2022-09-15T09:14:49.553Z,1001.35
2022-09-15T09:15:49.634Z,1001.36
2022-09-15T09:16:49.675Z,1001.32
2022-09-15T09:17:49.563Z,1001.31
2022-09-15T09:18:49.514Z,1001.32
2022-09-15T09:19:49.503Z,1001.33
2022-09-15T09:20:49.490Z,1001.32
2022-09-15T09:21:49.504Z,1001.28
2022-09-15T09:22:49.464Z,1001.30
2022-09-15T09:23:49.487Z,1001.34
2022-09-15T09:24:49.453Z,1001.29
2022-09-15T09:25:49.455Z,1001.36
2022-09-15T09:26:49.426Z,1001.35
2022-09-15T09:27:49.463Z,1001.36
2022-09-15T09:28:49.401Z,1001.36
2022-09-15T09:29:49.412Z,1001.37
2022-09-15T09:30:49.482Z,1001.41
2022-09-15T09:31:49.373Z,1001.36
2022-09-15T09:32:49.390Z,1001.38
2022-09-15T09:33:49.420Z,1001.37
2022-09-15T09:34:49.363Z,1001.37
2022-09-15T09:35:49.355Z,1001.38
2022-09-15T09:36:49.313Z,1001.38
2022-09-15T09:37:49.442Z,1001.38
2022-09-15T09:38:49.293Z,1001.33
2022-09-15T09:39:49.342Z,1001.31
2022-09-15T09:40:49.274Z,1001.32
2022-09-15T09:41:49.264Z,1001.32
2022-09-15T09:42:49.256Z,1001.32
2022-09-15T09:43:49.268Z,1001.29
2022-09-15T09:44:49.233Z,1001.28
2022-09-15T09:45:49.224Z,1001.29
2022-09-15T09:46:49.235Z,1001.29
2022-09-15T09:47:49.219Z,1001.34
2022-09-15T09:48:49.183Z,1001.36
2022-09-15T09:49:49.214Z,1001.32
2022-09-15T09:50:49.162Z,1001.35
2022-09-15T09:51:49.191Z,1001.38
2022-09-15T09:52:49.175Z,1001.33
2022-09-15T09:53:49.177Z,1001.33
2022-09-15T09:54:49.115Z,1001.34
2022-09-15T09:55:49.122Z,1001.36
2022-09-15T09:56:49.110Z,1001.38
2022-09-15T09:57:49.123Z,1001.36
2022-09-15T09:58:49.101Z,1001.35
2022-09-15T09:59:49.074Z,1001.36
2022-09-15T10:00:49.056Z,1001.37
2022-09-15T10:01:49.157Z,1001.37
2022-09-15T10:02:49.086Z,1001.35
2022-09-15T10:03:49.038Z,1001.34
2022-09-15T10:04:49.097Z,1001.36
2022-09-15T10:05:49.003Z,1001.36
2022-09-15T10:06:48.984Z,1001.41
2022-09-15T10:07:48.982Z,1001.38
2022-09-15T10:08:48.997Z,1001.37
2022-09-15T10:09:48.965Z,1001.33
2022-09-15T10:10:48.943Z,1001.34
2022-09-15T10:11:49.013Z,1001.40
2022-09-15T10:12:48.913Z,1001.40
2022-09-15T10:13:48.928Z,1001.41
2022-09-15T10:14:48.907Z,1001.37
2022-09-15T10:15:48.891Z,1001.38
2022-09-15T10:16:49.002Z,1001.40
2022-09-15T10:17:48.876Z,1001.43
2022-09-15T10:18:52.268Z,1001.47
2022-09-15T10:19:49.860Z,1001.57
2022-09-15T10:20:48.835Z,1001.67
2022-09-15T10:21:48.825Z,1001.62
2022-09-15T10:22:48.868Z,1001.66
2022-09-15T10:23:48.841Z,1001.65
2022-09-15T10:24:48.795Z,1001.64
2022-09-15T10:25:59.253Z,1001.66
2022-09-15T10:26:49.797Z,1001.69
2022-09-15T10:27:48.765Z,1001.66
2022-09-15T10:28:48.754Z,1001.67
2022-09-15T10:29:50.615Z,1001.68
2022-09-15T10:30:48.725Z,1001.68
2022-09-15T10:31:48.801Z,1001.64
2022-09-15T10:32:48.716Z,1001.65
2022-09-15T10:33:48.695Z,1001.67
2022-09-15T10:34:48.682Z,1001.62
2022-09-15T10:35:48.702Z,1001.61
2022-09-15T10:36:48.664Z,1001.60
2022-09-15T10:37:48.654Z,1001.58
2022-09-15T10:38:48.634Z,1001.59
2022-09-15T10:39:48.694Z,1001.55
2022-09-15T10:40:48.646Z,1001.52
2022-09-15T10:41:48.615Z,1001.52
2022-09-15T10:42:48.596Z,1001.54
2022-09-15T10:43:48.594Z,1001.55
2022-09-15T10:44:48.576Z,1001.54
2022-09-15T10:45:48.682Z,1001.54
2022-09-15T10:46:48.553Z,1001.50
2022-09-15T10:47:48.575Z,1001.50
2022-09-15T10:48:48.535Z,1001.48
2022-09-15T10:49:48.535Z,1001.51
2022-09-15T10:50:48.566Z,1001.50
2022-09-15T10:51:48.507Z,1001.48
2022-09-15T10:52:48.494Z,1001.47
2022-09-15T10:53:48.482Z,1001.52
2022-09-15T10:54:48.465Z,1001.52
2022-09-15T10:55:52.981Z,1001.47
2022-09-15T10:56:48.452Z,1001.49
2022-09-15T10:57:48.445Z,1001.43
2022-09-15T10:58:48.688Z,1001.47
2022-09-15T10:59:48.415Z,1001.47
2022-09-15T11:00:48.470Z,1001.50
2022-09-15T11:01:48.435Z,1001.48
2022-09-15T11:02:48.375Z,1001.52
2022-09-15T11:03:48.375Z,1001.54
2022-09-15T11:04:48.354Z,1001.57
2022-09-15T11:05:48.344Z,1001.55
2022-09-15T11:06:48.363Z,1001.57
2022-09-15T11:07:48.346Z,1001.59
2022-09-15T11:08:48.324Z,1001.57
2022-09-15T11:09:48.304Z,1001.57
2022-09-15T11:10:48.294Z,1001.57
2022-09-15T11:11:48.284Z,1001.49
2022-09-15T11:12:48.314Z,1001.52
2022-09-15T11:13:48.264Z,1001.54
2022-09-15T11:14:48.265Z,1001.51
2022-09-15T11:15:48.243Z,1001.56
2022-09-15T11:16:48.255Z,1001.56
2022-09-15T11:17:48.225Z,1001.60
2022-09-15T11:18:48.206Z,1001.62
2022-09-15T11:19:48.233Z,1001.59
2022-09-15T11:20:48.192Z,1001.63
2022-09-15T11:21:48.227Z,1001.63
2022-09-15T11:22:49.702Z,1001.62
2022-09-15T11:23:48.155Z,1001.62
2022-09-15T11:24:48.136Z,1001.56
2022-09-15T11:25:48.164Z,1001.59
2022-09-15T11:26:48.115Z,1001.58
2022-09-15T11:27:48.174Z,1001.60
2022-09-15T11:28:48.094Z,1001.53
2022-09-15T11:29:48.099Z,1001.54
2022-09-15T11:30:48.086Z,1001.54
2022-09-15T11:31:48.177Z,1001.56
2022-09-15T11:32:48.092Z,1001.51
2022-09-15T11:33:48.055Z,1001.47
2022-09-15T11:34:48.065Z,1001.48
2022-09-15T11:35:48.026Z,1001.48
2022-09-15T11:36:48.016Z,1001.49
2022-09-15T11:37:48.006Z,1001.49
2022-09-15T11:38:48.030Z,1001.46
2022-09-15T11:39:48.033Z,1001.47
2022-09-15T11:40:48.028Z,1001.45
2022-09-15T11:41:47.955Z,1001.40
2022-09-15T11:42:47.955Z,1001.40
2022-09-15T11:43:47.935Z,1001.37
2022-09-15T11:44:47.917Z,1001.38
2022-09-15T11:45:47.924Z,1001.34
2022-09-15T11:46:48.007Z,1001.36
2022-09-15T11:47:47.895Z,1001.33
2022-09-15T11:48:47.876Z,1001.33
2022-09-15T11:49:47.874Z,1001.41
2022-09-15T11:50:47.857Z,1001.37
2022-09-15T11:51:48.034Z,1001.35
2022-09-15T11:52:47.834Z,1001.38
2022-09-15T11:53:47.827Z,1001.41
2022-09-15T11:54:47.815Z,1001.44
2022-09-15T11:55:51.795Z,1001.48
2022-09-15T11:56:47.794Z,1001.49
2022-09-15T11:57:47.796Z,1001.48
2022-09-15T11:58:47.764Z,1001.53
2022-09-15T11:59:47.763Z,1001.47
2022-09-15T12:00:47.744Z,1001.47
2022-09-15T12:01:47.776Z,1001.47
2022-09-15T12:02:47.756Z,1001.47
2022-09-15T12:03:47.804Z,1001.47
2022-09-15T12:04:47.704Z,1001.47
2022-09-15T12:05:47.703Z,1001.46
2022-09-15T12:06:47.720Z,1001.47
2022-09-15T12:07:47.677Z,1001.41
2022-09-15T12:08:47.656Z,1001.45
2022-09-15T12:09:47.705Z,1001.44
2022-09-15T12:10:47.645Z,1001.45
2022-09-15T12:11:47.635Z,1001.45
2022-09-15T12:12:47.615Z,1001.47
2022-09-15T12:13:47.609Z,1001.44
2022-09-15T12:14:47.616Z,1001.44
2022-09-15T12:15:47.676Z,1001.42
2022-09-15T12:16:47.604Z,1001.46
2022-09-15T12:17:47.564Z,1001.43
2022-09-15T12:18:47.592Z,1001.42